sensor_id;sensor_type;location;lat;lon;timestamp;P1;durP1;ratioP1;P2;durP2;ratioP2
18399;SDS011;9326;49.468;11.008;2022-12-18T00:02:19;75.47;;;44.30;;
18399;SDS011;9326;49.468;11.008;2022-12-18T00:04:47;77.63;;;45.00;;
18399;SDS011;9326;49.468;11.008;2022-12-18T00:07:14;78.40;;;44.43;;
18399;SDS011;9326;49.468;11.008;2022-12-18T00:09:42;80.13;;;45.33;;
18399;SDS011;9326;49.468;11.008;2022-12-18T00:12:09;76.87;;;44.73;;
18399;SDS011;9326;49.468;11.008;2022-12-18T00:14:36;79.80;;;43.93;;
18399;SDS011;9326;49.468;11.008;2022-12-18T00:17:04;74.97;;;44.57;;
18399;SDS011;9326;49.468;11.008;2022-12-18T00:19:31;75.03;;;44.40;;
18399;SDS011;9326;49.468;11.008;2022-12-18T00:21:59;80.57;;;45.00;;
18399;SDS011;9326;49.468;11.008;2022-12-18T00:24:26;74.27;;;44.63;;
18399;SDS011;9326;49.468;11.008;2022-12-18T00:26:53;73.73;;;44.70;;
18399;SDS011;9326;49.468;11.008;2022-12-18T00:29:20;73.83;;;44.03;;
18399;SDS011;9326;49.468;11.008;2022-12-18T00:31:47;78.93;;;45.60;;
18399;SDS011;9326;49.468;11.008;2022-12-18T00:34:15;81.30;;;46.80;;
18399;SDS011;9326;49.468;11.008;2022-12-18T00:36:42;78.80;;;46.67;;
18399;SDS011;9326;49.468;11.008;2022-12-18T00:39:10;77.27;;;46.20;;
18399;SDS011;9326;49.468;11.008;2022-12-18T00:41:37;77.67;;;46.03;;
18399;SDS011;9326;49.468;11.008;2022-12-18T00:44:22;81.30;;;46.37;;
18399;SDS011;9326;49.468;11.008;2022-12-18T00:46:50;79.53;;;46.77;;
18399;SDS011;9326;49.468;11.008;2022-12-18T00:49:19;78.63;;;46.10;;
18399;SDS011;9326;49.468;11.008;2022-12-18T00:51:48;82.73;;;46.10;;
18399;SDS011;9326;49.468;11.008;2022-12-18T00:54:15;77.00;;;46.33;;
18399;SDS011;9326;49.468;11.008;2022-12-18T00:56:43;83.67;;;46.83;;
18399;SDS011;9326;49.468;11.008;2022-12-18T00:59:10;73.53;;;44.57;;
18399;SDS011;9326;49.468;11.008;2022-12-18T06:02:43;45.37;;;22.10;;
18399;SDS011;9326;49.468;11.008;2022-12-18T06:05:13;40.30;;;21.53;;
18399;SDS011;9326;49.468;11.008;2022-12-18T06:07:40;44.97;;;21.47;;
18399;SDS011;9326;49.468;11.008;2022-12-18T06:10:07;44.00;;;22.53;;
18399;SDS011;9326;49.468;11.008;2022-12-18T06:12:34;41.20;;;21.37;;
18399;SDS011;9326;49.468;11.008;2022-12-18T06:15:01;39.87;;;20.43;;
18399;SDS011;9326;49.468;11.008;2022-12-18T06:17:29;41.00;;;20.30;;
18399;SDS011;9326;49.468;11.008;2022-12-18T06:19:57;35.00;;;19.53;;
18399;SDS011;9326;49.468;11.008;2022-12-18T06:22:25;39.77;;;20.57;;
18399;SDS011;9326;49.468;11.008;2022-12-18T06:24:52;40.80;;;20.13;;
18399;SDS011;9326;49.468;11.008;2022-12-18T06:27:19;42.07;;;21.30;;
18399;SDS011;9326;49.468;11.008;2022-12-18T06:29:46;39.17;;;20.83;;
18399;SDS011;9326;49.468;11.008;2022-12-18T06:32:13;40.53;;;20.83;;
18399;SDS011;9326;49.468;11.008;2022-12-18T06:34:40;41.27;;;20.73;;
18399;SDS011;9326;49.468;11.008;2022-12-18T06:37:09;40.43;;;20.70;;
18399;SDS011;9326;49.468;11.008;2022-12-18T06:39:36;38.77;;;20.80;;
18399;SDS011;9326;49.468;11.008;2022-12-18T06:42:03;39.10;;;20.33;;
18399;SDS011;9326;49.468;11.008;2022-12-18T06:44:30;44.47;;;21.47;;
18399;SDS011;9326;49.468;11.008;2022-12-18T06:46:57;39.80;;;20.37;;
18399;SDS011;9326;49.468;11.008;2022-12-18T06:49:24;40.47;;;20.50;;
18399;SDS011;9326;49.468;11.008;2022-12-18T06:51:51;40.07;;;19.73;;
18399;SDS011;9326;49.468;11.008;2022-12-18T06:54:20;41.07;;;21.70;;
18399;SDS011;9326;49.468;11.008;2022-12-18T06:56:47;38.53;;;20.33;;
18399;SDS011;9326;49.468;11.008;2022-12-18T06:59:14;37.97;;;19.87;;
18399;SDS011;9326;49.468;11.008;2022-12-18T07:01:41;42.17;;;21.03;;
18399;SDS011;9326;49.468;11.008;2022-12-18T07:04:08;41.63;;;20.60;;
18399;SDS011;9326;49.468;11.008;2022-12-18T07:06:35;40.73;;;20.17;;
18399;SDS011;9326;49.468;11.008;2022-12-18T07:09:02;41.87;;;20.53;;
18399;SDS011;9326;49.468;11.008;2022-12-18T07:11:32;40.77;;;20.47;;
18399;SDS011;9326;49.468;11.008;2022-12-18T07:13:59;39.57;;;19.37;;
18399;SDS011;9326;49.468;11.008;2022-12-18T07:16:26;45.03;;;20.33;;
18399;SDS011;9326;49.468;11.008;2022-12-18T07:18:54;42.43;;;20.50;;
18399;SDS011;9326;49.468;11.008;2022-12-18T07:21:21;42.80;;;21.07;;
18399;SDS011;9326;49.468;11.008;2022-12-18T07:23:49;42.30;;;21.20;;
18399;SDS011;9326;49.468;11.008;2022-12-18T07:26:17;42.50;;;20.63;;
18399;SDS011;9326;49.468;11.008;2022-12-18T07:28:46;43.27;;;21.17;;
18399;SDS011;9326;49.468;11.008;2022-12-18T07:31:14;43.30;;;20.73;;
18399;SDS011;9326;49.468;11.008;2022-12-18T07:33:42;42.97;;;21.30;;
18399;SDS011;9326;49.468;11.008;2022-12-18T07:36:09;44.80;;;21.30;;
18399;SDS011;9326;49.468;11.008;2022-12-18T07:38:37;44.87;;;21.70;;
18399;SDS011;9326;49.468;11.008;2022-12-18T07:41:04;42.27;;;21.20;;
18399;SDS011;9326;49.468;11.008;2022-12-18T07:43:32;41.53;;;21.00;;
18399;SDS011;9326;49.468;11.008;2022-12-18T07:46:00;42.97;;;21.03;;
18399;SDS011;9326;49.468;11.008;2022-12-18T07:48:28;41.83;;;20.43;;
18399;SDS011;9326;49.468;11.008;2022-12-18T07:50:57;41.27;;;20.40;;
18399;SDS011;9326;49.468;11.008;2022-12-18T07:53:24;39.40;;;19.43;;
18399;SDS011;9326;49.468;11.008;2022-12-18T07:55:54;39.07;;;19.50;;
18399;SDS011;9326;49.468;11.008;2022-12-18T07:58:21;43.17;;;21.10;;
18399;SDS011;9326;49.468;11.008;2022-12-18T08:00:48;43.17;;;20.53;;
18399;SDS011;9326;49.468;11.008;2022-12-18T08:03:16;41.80;;;21.40;;
18399;SDS011;9326;49.468;11.008;2022-12-18T08:05:44;41.93;;;20.77;;
18399;SDS011;9326;49.468;11.008;2022-12-18T08:08:11;44.30;;;21.77;;
18399;SDS011;9326;49.468;11.008;2022-12-18T08:10:38;40.17;;;21.33;;
18399;SDS011;9326;49.468;11.008;2022-12-18T08:13:05;43.07;;;21.80;;
18399;SDS011;9326;49.468;11.008;2022-12-18T08:15:32;44.53;;;20.80;;
18399;SDS011;9326;49.468;11.008;2022-12-18T08:17:59;45.80;;;21.47;;
18399;SDS011;9326;49.468;11.008;2022-12-18T08:20:27;44.50;;;21.40;;
18399;SDS011;9326;49.468;11.008;2022-12-18T08:22:54;42.87;;;22.23;;
18399;SDS011;9326;49.468;11.008;2022-12-18T08:25:23;46.20;;;22.17;;
18399;SDS011;9326;49.468;11.008;2022-12-18T08:27:50;44.70;;;23.33;;
18399;SDS011;9326;49.468;11.008;2022-12-18T08:30:17;46.70;;;23.13;;
18399;SDS011;9326;49.468;11.008;2022-12-18T08:32:45;43.40;;;21.23;;
18399;SDS011;9326;49.468;11.008;2022-12-18T08:35:14;49.77;;;24.53;;
18399;SDS011;9326;49.468;11.008;2022-12-18T08:37:42;50.80;;;26.60;;
18399;SDS011;9326;49.468;11.008;2022-12-18T08:40:10;45.13;;;23.50;;
18399;SDS011;9326;49.468;11.008;2022-12-18T08:42:37;40.20;;;21.23;;
18399;SDS011;9326;49.468;11.008;2022-12-18T08:45:22;40.10;;;23.27;;
18399;SDS011;9326;49.468;11.008;2022-12-18T08:47:51;37.63;;;18.47;;
18399;SDS011;9326;49.468;11.008;2022-12-18T08:50:18;37.50;;;20.27;;
18399;SDS011;9326;49.468;11.008;2022-12-18T08:52:46;34.10;;;17.97;;
18399;SDS011;9326;49.468;11.008;2022-12-18T08:55:13;51.27;;;28.27;;
18399;SDS011;9326;49.468;11.008;2022-12-18T08:57:40;39.43;;;21.40;;
18399;SDS011;9326;49.468;11.008;2022-12-18T09:00:08;38.43;;;19.60;;
18399;SDS011;9326;49.468;11.008;2022-12-18T09:02:35;34.90;;;18.10;;
18399;SDS011;9326;49.468;11.008;2022-12-18T09:05:02;30.90;;;15.17;;
18399;SDS011;9326;49.468;11.008;2022-12-18T09:07:29;23.07;;;11.43;;
18399;SDS011;9326;49.468;11.008;2022-12-18T09:09:58;26.47;;;12.33;;
18399;SDS011;9326;49.468;11.008;2022-12-18T09:12:25;27.80;;;12.37;;
18399;SDS011;9326;49.468;11.008;2022-12-18T09:14:52;30.27;;;13.47;;
18399;SDS011;9326;49.468;11.008;2022-12-18T09:17:19;25.83;;;11.40;;
18399;SDS011;9326;49.468;11.008;2022-12-18T09:19:46;24.17;;;11.53;;
18399;SDS011;9326;49.468;11.008;2022-12-18T09:22:13;25.23;;;12.00;;
18399;SDS011;9326;49.468;11.008;2022-12-18T09:24:40;24.07;;;12.13;;
18399;SDS011;9326;49.468;11.008;2022-12-18T09:27:08;28.77;;;12.43;;
18399;SDS011;9326;49.468;11.008;2022-12-18T09:29:35;22.47;;;11.87;;
18399;SDS011;9326;49.468;11.008;2022-12-18T09:32:02;16.50;;;7.70;;
18399;SDS011;9326;49.468;11.008;2022-12-18T09:34:30;26.13;;;12.47;;
18399;SDS011;9326;49.468;11.008;2022-12-18T09:36:57;25.40;;;12.17;;
18399;SDS011;9326;49.468;11.008;2022-12-18T09:39:24;23.60;;;11.67;;
18399;SDS011;9326;49.468;11.008;2022-12-18T09:41:52;26.17;;;11.77;;
18399;SDS011;9326;49.468;11.008;2022-12-18T09:44:22;12.57;;;6.87;;
18399;SDS011;9326;49.468;11.008;2022-12-18T09:46:51;24.23;;;9.87;;
18399;SDS011;9326;49.468;11.008;2022-12-18T09:49:21;22.43;;;9.67;;
18399;SDS011;9326;49.468;11.008;2022-12-18T09:51:50;16.13;;;8.23;;
18399;SDS011;9326;49.468;11.008;2022-12-18T09:54:18;15.33;;;7.80;;
18399;SDS011;9326;49.468;11.008;2022-12-18T09:56:47;18.33;;;8.03;;
18399;SDS011;9326;49.468;11.008;2022-12-18T09:59:17;25.23;;;10.70;;
18399;SDS011;9326;49.468;11.008;2022-12-18T10:01:46;22.67;;;10.27;;
18399;SDS011;9326;49.468;11.008;2022-12-18T10:04:13;21.07;;;10.57;;
18399;SDS011;9326;49.468;11.008;2022-12-18T10:06:42;22.20;;;9.77;;
18399;SDS011;9326;49.468;11.008;2022-12-18T10:09:11;24.97;;;11.10;;
18399;SDS011;9326;49.468;11.008;2022-12-18T10:11:43;21.53;;;10.53;;
18399;SDS011;9326;49.468;11.008;2022-12-18T10:14:15;20.60;;;10.03;;
18399;SDS011;9326;49.468;11.008;2022-12-18T10:16:47;28.13;;;13.80;;
18399;SDS011;9326;49.468;11.008;2022-12-18T10:19:20;24.37;;;12.13;;
18399;SDS011;9326;49.468;11.008;2022-12-18T10:21:52;23.50;;;11.80;;
18399;SDS011;9326;49.468;11.008;2022-12-18T10:24:24;24.33;;;11.23;;
18399;SDS011;9326;49.468;11.008;2022-12-18T10:26:55;22.03;;;11.30;;
18399;SDS011;9326;49.468;11.008;2022-12-18T10:29:25;20.87;;;10.27;;
18399;SDS011;9326;49.468;11.008;2022-12-18T10:31:53;24.73;;;13.83;;
18399;SDS011;9326;49.468;11.008;2022-12-18T10:34:20;28.67;;;14.90;;
18399;SDS011;9326;49.468;11.008;2022-12-18T10:36:47;25.40;;;13.03;;
18399;SDS011;9326;49.468;11.008;2022-12-18T10:39:15;27.37;;;14.73;;
18399;SDS011;9326;49.468;11.008;2022-12-18T10:41:43;25.40;;;13.83;;
18399;SDS011;9326;49.468;11.008;2022-12-18T10:44:12;26.67;;;14.73;;
18399;SDS011;9326;49.468;11.008;2022-12-18T10:46:39;24.93;;;13.40;;
18399;SDS011;9326;49.468;11.008;2022-12-18T10:49:17;27.33;;;14.33;;
18399;SDS011;9326;49.468;11.008;2022-12-18T10:51:44;28.13;;;16.23;;
18399;SDS011;9326;49.468;11.008;2022-12-18T10:54:13;26.60;;;14.93;;
18399;SDS011;9326;49.468;11.008;2022-12-18T10:56:41;29.07;;;14.83;;
18399;SDS011;9326;49.468;11.008;2022-12-18T10:59:09;27.50;;;14.57;;
18399;SDS011;9326;49.468;11.008;2022-12-18T11:01:47;26.33;;;12.97;;
18399;SDS011;9326;49.468;11.008;2022-12-18T11:04:17;25.93;;;13.20;;
18399;SDS011;9326;49.468;11.008;2022-12-18T11:06:52;27.00;;;13.17;;
18399;SDS011;9326;49.468;11.008;2022-12-18T11:09:21;20.17;;;10.67;;
18399;SDS011;9326;49.468;11.008;2022-12-18T11:11:48;23.90;;;11.50;;
18399;SDS011;9326;49.468;11.008;2022-12-18T11:14:18;24.93;;;13.53;;
18399;SDS011;9326;49.468;11.008;2022-12-18T11:16:47;26.97;;;13.73;;
18399;SDS011;9326;49.468;11.008;2022-12-18T11:19:19;27.10;;;13.17;;
18399;SDS011;9326;49.468;11.008;2022-12-18T11:21:48;24.43;;;11.70;;
18399;SDS011;9326;49.468;11.008;2022-12-18T11:24:17;25.10;;;10.33;;
18399;SDS011;9326;49.468;11.008;2022-12-18T11:26:46;22.27;;;10.47;;
18399;SDS011;9326;49.468;11.008;2022-12-18T11:29:16;29.10;;;15.50;;
18399;SDS011;9326;49.468;11.008;2022-12-18T11:31:43;19.13;;;8.70;;
18399;SDS011;9326;49.468;11.008;2022-12-18T11:34:11;25.90;;;11.87;;
18399;SDS011;9326;49.468;11.008;2022-12-18T11:36:42;26.33;;;11.67;;
18399;SDS011;9326;49.468;11.008;2022-12-18T11:39:12;24.17;;;11.63;;
18399;SDS011;9326;49.468;11.008;2022-12-18T11:41:41;26.93;;;14.20;;
18399;SDS011;9326;49.468;11.008;2022-12-18T11:44:29;21.10;;;10.37;;
18399;SDS011;9326;49.468;11.008;2022-12-18T11:47:00;24.53;;;11.40;;
18399;SDS011;9326;49.468;11.008;2022-12-18T11:49:28;23.13;;;10.60;;
18399;SDS011;9326;49.468;11.008;2022-12-18T11:52:00;24.93;;;11.13;;
18399;SDS011;9326;49.468;11.008;2022-12-18T11:54:28;25.63;;;12.23;;
18399;SDS011;9326;49.468;11.008;2022-12-18T11:56:56;24.67;;;11.50;;
18399;SDS011;9326;49.468;11.008;2022-12-18T11:59:28;23.57;;;11.17;;
18399;SDS011;9326;49.468;11.008;2022-12-18T12:02:00;30.23;;;14.27;;
18399;SDS011;9326;49.468;11.008;2022-12-18T12:04:43;28.47;;;14.10;;
18399;SDS011;9326;49.468;11.008;2022-12-18T12:07:20;27.03;;;11.83;;
18399;SDS011;9326;49.468;11.008;2022-12-18T12:09:51;30.90;;;14.13;;
18399;SDS011;9326;49.468;11.008;2022-12-18T12:12:28;26.00;;;12.97;;
18399;SDS011;9326;49.468;11.008;2022-12-18T12:15:12;26.43;;;12.60;;
18399;SDS011;9326;49.468;11.008;2022-12-18T12:17:41;27.27;;;13.67;;
18399;SDS011;9326;49.468;11.008;2022-12-18T12:20:13;28.30;;;12.43;;
18399;SDS011;9326;49.468;11.008;2022-12-18T12:22:44;31.80;;;17.77;;
18399;SDS011;9326;49.468;11.008;2022-12-18T12:25:28;29.20;;;13.70;;
18399;SDS011;9326;49.468;11.008;2022-12-18T12:28:00;27.27;;;14.00;;
18399;SDS011;9326;49.468;11.008;2022-12-18T12:30:32;19.20;;;9.37;;
18399;SDS011;9326;49.468;11.008;2022-12-18T12:33:05;25.50;;;12.40;;
18399;SDS011;9326;49.468;11.008;2022-12-18T12:35:40;22.37;;;9.63;;
18399;SDS011;9326;49.468;11.008;2022-12-18T12:38:11;30.17;;;15.73;;
18399;SDS011;9326;49.468;11.008;2022-12-18T12:40:41;27.43;;;12.67;;
18399;SDS011;9326;49.468;11.008;2022-12-18T12:43:19;33.10;;;16.30;;
18399;SDS011;9326;49.468;11.008;2022-12-18T12:45:47;31.23;;;17.75;;
18399;SDS011;9326;49.468;11.008;2022-12-18T12:48:18;30.10;;;14.57;;
18399;SDS011;9326;49.468;11.008;2022-12-18T12:50:46;32.73;;;15.90;;
18399;SDS011;9326;49.468;11.008;2022-12-18T12:53:17;29.27;;;14.13;;
18399;SDS011;9326;49.468;11.008;2022-12-18T12:55:46;25.10;;;13.20;;
18399;SDS011;9326;49.468;11.008;2022-12-18T12:58:14;22.77;;;10.40;;
18399;SDS011;9326;49.468;11.008;2022-12-18T13:00:44;23.87;;;11.93;;
18399;SDS011;9326;49.468;11.008;2022-12-18T13:03:15;23.47;;;11.73;;
18399;SDS011;9326;49.468;11.008;2022-12-18T13:05:45;24.87;;;11.93;;
18399;SDS011;9326;49.468;11.008;2022-12-18T13:08:23;23.13;;;12.57;;
18399;SDS011;9326;49.468;11.008;2022-12-18T13:10:50;24.20;;;11.70;;
18399;SDS011;9326;49.468;11.008;2022-12-18T13:13:47;25.97;;;12.07;;
18399;SDS011;9326;49.468;11.008;2022-12-18T13:16:13;27.43;;;13.90;;
18399;SDS011;9326;49.468;11.008;2022-12-18T13:18:48;22.73;;;11.73;;
18399;SDS011;9326;49.468;11.008;2022-12-18T13:21:18;20.63;;;9.30;;
18399;SDS011;9326;49.468;11.008;2022-12-18T13:23:49;20.10;;;9.20;;
18399;SDS011;9326;49.468;11.008;2022-12-18T13:26:30;19.67;;;9.97;;
18399;SDS011;9326;49.468;11.008;2022-12-18T13:28:58;24.37;;;12.13;;
18399;SDS011;9326;49.468;11.008;2022-12-18T13:34:21;28.37;;;13.57;;
18399;SDS011;9326;49.468;11.008;2022-12-18T13:36:48;23.93;;;10.07;;
18399;SDS011;9326;49.468;11.008;2022-12-18T13:39:24;31.53;;;15.37;;
18399;SDS011;9326;49.468;11.008;2022-12-18T13:41:52;24.63;;;11.87;;
18399;SDS011;9326;49.468;11.008;2022-12-18T13:44:23;23.37;;;11.83;;
18399;SDS011;9326;49.468;11.008;2022-12-18T13:46:51;21.83;;;10.93;;
18399;SDS011;9326;49.468;11.008;2022-12-18T13:49:20;26.93;;;13.73;;
18399;SDS011;9326;49.468;11.008;2022-12-18T13:51:49;27.07;;;14.33;;
18399;SDS011;9326;49.468;11.008;2022-12-18T13:54:18;24.50;;;11.70;;
18399;SDS011;9326;49.468;11.008;2022-12-18T13:56:47;20.13;;;9.77;;
18399;SDS011;9326;49.468;11.008;2022-12-18T13:59:15;28.17;;;15.50;;
18399;SDS011;9326;49.468;11.008;2022-12-18T14:01:44;25.80;;;13.37;;
18399;SDS011;9326;49.468;11.008;2022-12-18T14:04:11;28.00;;;12.50;;
18399;SDS011;9326;49.468;11.008;2022-12-18T14:06:38;25.57;;;10.57;;
18399;SDS011;9326;49.468;11.008;2022-12-18T14:09:08;24.80;;;10.90;;
18399;SDS011;9326;49.468;11.008;2022-12-18T14:11:37;21.23;;;11.00;;
18399;SDS011;9326;49.468;11.008;2022-12-18T14:14:05;24.83;;;11.53;;
18399;SDS011;9326;49.468;11.008;2022-12-18T14:16:34;28.03;;;13.00;;
18399;SDS011;9326;49.468;11.008;2022-12-18T14:19:01;26.60;;;11.73;;
18399;SDS011;9326;49.468;11.008;2022-12-18T14:21:29;28.77;;;12.93;;
18399;SDS011;9326;49.468;11.008;2022-12-18T14:24:04;28.73;;;12.70;;
18399;SDS011;9326;49.468;11.008;2022-12-18T14:26:31;27.33;;;12.97;;
18399;SDS011;9326;49.468;11.008;2022-12-18T14:28:59;27.37;;;12.40;;
18399;SDS011;9326;49.468;11.008;2022-12-18T14:31:29;27.27;;;12.20;;
18399;SDS011;9326;49.468;11.008;2022-12-18T14:33:56;24.43;;;12.77;;
18399;SDS011;9326;49.468;11.008;2022-12-18T14:36:24;23.40;;;10.47;;
18399;SDS011;9326;49.468;11.008;2022-12-18T14:38:52;28.50;;;13.03;;
18399;SDS011;9326;49.468;11.008;2022-12-18T14:41:20;26.03;;;11.43;;
18399;SDS011;9326;49.468;11.008;2022-12-18T14:43:48;31.53;;;14.03;;
18399;SDS011;9326;49.468;11.008;2022-12-18T14:46:30;21.87;;;11.03;;
18399;SDS011;9326;49.468;11.008;2022-12-18T14:48:59;25.97;;;12.33;;
18399;SDS011;9326;49.468;11.008;2022-12-18T14:51:27;29.83;;;14.03;;
18399;SDS011;9326;49.468;11.008;2022-12-18T14:53:55;30.07;;;12.73;;
18399;SDS011;9326;49.468;11.008;2022-12-18T14:56:23;27.43;;;13.10;;
18399;SDS011;9326;49.468;11.008;2022-12-18T14:58:51;34.00;;;16.93;;
18399;SDS011;9326;49.468;11.008;2022-12-18T15:01:21;27.33;;;13.37;;
18399;SDS011;9326;49.468;11.008;2022-12-18T15:03:50;28.10;;;14.33;;
18399;SDS011;9326;49.468;11.008;2022-12-18T15:06:18;25.43;;;13.57;;
18399;SDS011;9326;49.468;11.008;2022-12-18T15:08:48;28.00;;;13.27;;
18399;SDS011;9326;49.468;11.008;2022-12-18T15:11:25;31.63;;;17.87;;
18399;SDS011;9326;49.468;11.008;2022-12-18T15:13:53;23.80;;;12.73;;
18399;SDS011;9326;49.468;11.008;2022-12-18T15:16:20;29.93;;;14.33;;
18399;SDS011;9326;49.468;11.008;2022-12-18T15:18:47;31.90;;;14.43;;
18399;SDS011;9326;49.468;11.008;2022-12-18T15:21:17;29.33;;;15.07;;
18399;SDS011;9326;49.468;11.008;2022-12-18T15:23:48;34.50;;;16.70;;
18399;SDS011;9326;49.468;11.008;2022-12-18T15:26:16;25.53;;;11.77;;
18399;SDS011;9326;49.468;11.008;2022-12-18T15:28:44;16.27;;;8.63;;
18399;SDS011;9326;49.468;11.008;2022-12-18T15:31:22;27.17;;;15.37;;
18399;SDS011;9326;49.468;11.008;2022-12-18T15:34:00;27.53;;;14.87;;
18399;SDS011;9326;49.468;11.008;2022-12-18T15:36:29;32.37;;;17.27;;
18399;SDS011;9326;49.468;11.008;2022-12-18T15:39:01;29.47;;;13.57;;
18399;SDS011;9326;49.468;11.008;2022-12-18T15:41:30;21.17;;;9.97;;
18399;SDS011;9326;49.468;11.008;2022-12-18T15:43:57;24.77;;;10.80;;
18399;SDS011;9326;49.468;11.008;2022-12-18T15:46:24;32.77;;;17.47;;
18399;SDS011;9326;49.468;11.008;2022-12-18T15:48:52;24.53;;;12.80;;
18399;SDS011;9326;49.468;11.008;2022-12-18T15:51:19;28.13;;;13.80;;
18399;SDS011;9326;49.468;11.008;2022-12-18T15:53:48;29.63;;;15.30;;
18399;SDS011;9326;49.468;11.008;2022-12-18T15:56:16;28.33;;;13.87;;
18399;SDS011;9326;49.468;11.008;2022-12-18T15:59:01;26.90;;;14.83;;
18399;SDS011;9326;49.468;11.008;2022-12-18T16:01:29;25.60;;;12.43;;
18399;SDS011;9326;49.468;11.008;2022-12-18T16:03:56;28.80;;;15.97;;
18399;SDS011;9326;49.468;11.008;2022-12-18T16:06:23;32.43;;;15.73;;
18399;SDS011;9326;49.468;11.008;2022-12-18T16:08:51;26.50;;;13.73;;
18399;SDS011;9326;49.468;11.008;2022-12-18T16:11:21;34.00;;;18.67;;
18399;SDS011;9326;49.468;11.008;2022-12-18T16:14:04;32.17;;;18.20;;
18399;SDS011;9326;49.468;11.008;2022-12-18T16:16:31;29.17;;;13.67;;
18399;SDS011;9326;49.468;11.008;2022-12-18T16:18:58;25.10;;;11.70;;
18399;SDS011;9326;49.468;11.008;2022-12-18T16:21:25;23.17;;;12.37;;
18399;SDS011;9326;49.468;11.008;2022-12-18T16:23:54;37.53;;;19.03;;
18399;SDS011;9326;49.468;11.008;2022-12-18T16:26:21;58.13;;;27.20;;
18399;SDS011;9326;49.468;11.008;2022-12-18T16:28:48;29.10;;;13.17;;
18399;SDS011;9326;49.468;11.008;2022-12-18T16:31:15;29.77;;;14.27;;
18399;SDS011;9326;49.468;11.008;2022-12-18T16:33:42;29.80;;;14.23;;
18399;SDS011;9326;49.468;11.008;2022-12-18T16:36:09;40.13;;;17.77;;
18399;SDS011;9326;49.468;11.008;2022-12-18T16:38:36;29.13;;;14.10;;
18399;SDS011;9326;49.468;11.008;2022-12-18T16:41:06;40.77;;;20.00;;
18399;SDS011;9326;49.468;11.008;2022-12-18T16:43:57;31.03;;;14.87;;
18399;SDS011;9326;49.468;11.008;2022-12-18T16:46:24;31.13;;;13.33;;
18399;SDS011;9326;49.468;11.008;2022-12-18T16:48:51;29.27;;;14.13;;
18399;SDS011;9326;49.468;11.008;2022-12-18T16:51:18;33.40;;;14.17;;
18399;SDS011;9326;49.468;11.008;2022-12-18T16:53:45;32.53;;;14.83;;
18399;SDS011;9326;49.468;11.008;2022-12-18T16:56:13;31.13;;;14.10;;
18399;SDS011;9326;49.468;11.008;2022-12-18T16:58:40;23.27;;;11.57;;
18399;SDS011;9326;49.468;11.008;2022-12-18T17:01:07;31.77;;;14.50;;
18399;SDS011;9326;49.468;11.008;2022-12-18T17:03:34;27.17;;;12.57;;
18399;SDS011;9326;49.468;11.008;2022-12-18T17:06:02;27.90;;;13.43;;
18399;SDS011;9326;49.468;11.008;2022-12-18T17:08:29;30.60;;;14.07;;
18399;SDS011;9326;49.468;11.008;2022-12-18T17:11:02;30.47;;;13.90;;
18399;SDS011;9326;49.468;11.008;2022-12-18T17:13:30;25.33;;;12.67;;
18399;SDS011;9326;49.468;11.008;2022-12-18T17:16:00;31.20;;;15.13;;
18399;SDS011;9326;49.468;11.008;2022-12-18T17:18:28;31.13;;;14.30;;
18399;SDS011;9326;49.468;11.008;2022-12-18T17:20:57;30.37;;;13.67;;
18399;SDS011;9326;49.468;11.008;2022-12-18T17:23:24;33.73;;;16.07;;
18399;SDS011;9326;49.468;11.008;2022-12-18T17:25:53;32.70;;;13.60;;
18399;SDS011;9326;49.468;11.008;2022-12-18T17:28:20;23.10;;;12.20;;
18399;SDS011;9326;49.468;11.008;2022-12-18T17:30:48;29.20;;;14.93;;
18399;SDS011;9326;49.468;11.008;2022-12-18T17:33:15;29.97;;;14.20;;
18399;SDS011;9326;49.468;11.008;2022-12-18T17:35:42;27.90;;;13.73;;
18399;SDS011;9326;49.468;11.008;2022-12-18T17:38:10;29.50;;;15.00;;
18399;SDS011;9326;49.468;11.008;2022-12-18T17:40:37;31.60;;;14.13;;
18399;SDS011;9326;49.468;11.008;2022-12-18T17:43:04;26.70;;;14.37;;
18399;SDS011;9326;49.468;11.008;2022-12-18T17:45:33;29.23;;;13.17;;
18399;SDS011;9326;49.468;11.008;2022-12-18T17:48:02;28.87;;;14.53;;
18399;SDS011;9326;49.468;11.008;2022-12-18T17:50:31;30.90;;;13.90;;
18399;SDS011;9326;49.468;11.008;2022-12-18T17:52:58;28.70;;;13.60;;
18399;SDS011;9326;49.468;11.008;2022-12-18T17:55:26;30.90;;;15.47;;
18399;SDS011;9326;49.468;11.008;2022-12-18T17:57:53;36.30;;;16.73;;
18399;SDS011;9326;49.468;11.008;2022-12-18T18:00:20;37.93;;;17.83;;
18399;SDS011;9326;49.468;11.008;2022-12-18T18:02:47;32.80;;;16.80;;
18399;SDS011;9326;49.468;11.008;2022-12-18T18:05:16;47.87;;;22.03;;
18399;SDS011;9326;49.468;11.008;2022-12-18T18:07:43;36.80;;;17.27;;
18399;SDS011;9326;49.468;11.008;2022-12-18T18:10:10;33.73;;;15.83;;
18399;SDS011;9326;49.468;11.008;2022-12-18T18:12:37;31.10;;;15.23;;
18399;SDS011;9326;49.468;11.008;2022-12-18T18:15:22;40.30;;;19.63;;
18399;SDS011;9326;49.468;11.008;2022-12-18T18:17:49;33.23;;;16.70;;
18399;SDS011;9326;49.468;11.008;2022-12-18T18:20:18;33.93;;;16.17;;
18399;SDS011;9326;49.468;11.008;2022-12-18T18:22:45;32.23;;;14.77;;
18399;SDS011;9326;49.468;11.008;2022-12-18T18:25:12;32.73;;;13.87;;
18399;SDS011;9326;49.468;11.008;2022-12-18T18:27:39;29.50;;;14.30;;
18399;SDS011;9326;49.468;11.008;2022-12-18T18:30:06;29.30;;;13.80;;
18399;SDS011;9326;49.468;11.008;2022-12-18T18:32:34;30.37;;;15.40;;
18399;SDS011;9326;49.468;11.008;2022-12-18T18:35:03;28.90;;;14.97;;
18399;SDS011;9326;49.468;11.008;2022-12-18T18:37:32;29.80;;;15.50;;
18399;SDS011;9326;49.468;11.008;2022-12-18T18:39:59;73.00;;;30.10;;
18399;SDS011;9326;49.468;11.008;2022-12-18T18:42:26;68.73;;;27.47;;
18399;SDS011;9326;49.468;11.008;2022-12-18T18:44:53;41.50;;;18.80;;
18399;SDS011;9326;49.468;11.008;2022-12-18T18:47:20;33.80;;;16.00;;
18399;SDS011;9326;49.468;11.008;2022-12-18T18:49:47;46.13;;;21.03;;
18399;SDS011;9326;49.468;11.008;2022-12-18T18:52:14;34.73;;;16.57;;
18399;SDS011;9326;49.468;11.008;2022-12-18T18:54:43;38.33;;;17.87;;
18399;SDS011;9326;49.468;11.008;2022-12-18T18:57:10;46.77;;;23.20;;
18399;SDS011;9326;49.468;11.008;2022-12-18T18:59:37;33.73;;;16.97;;
18399;SDS011;9326;49.468;11.008;2022-12-18T19:02:04;39.43;;;18.00;;
18399;SDS011;9326;49.468;11.008;2022-12-18T19:04:32;34.03;;;17.10;;
18399;SDS011;9326;49.468;11.008;2022-12-18T19:07:00;32.43;;;17.00;;
18399;SDS011;9326;49.468;11.008;2022-12-18T19:09:28;38.20;;;17.27;;
18399;SDS011;9326;49.468;11.008;2022-12-18T19:11:56;29.57;;;14.33;;
18399;SDS011;9326;49.468;11.008;2022-12-18T19:14:41;33.90;;;17.87;;
18399;SDS011;9326;49.468;11.008;2022-12-18T19:17:08;32.53;;;16.07;;
18399;SDS011;9326;49.468;11.008;2022-12-18T19:19:35;32.23;;;17.20;;
18399;SDS011;9326;49.468;11.008;2022-12-18T19:22:02;30.90;;;15.43;;
18399;SDS011;9326;49.468;11.008;2022-12-18T19:24:29;37.93;;;20.73;;
18399;SDS011;9326;49.468;11.008;2022-12-18T19:26:58;40.63;;;20.80;;
18399;SDS011;9326;49.468;11.008;2022-12-18T19:29:25;31.93;;;17.10;;
18399;SDS011;9326;49.468;11.008;2022-12-18T19:31:52;33.10;;;15.43;;
18399;SDS011;9326;49.468;11.008;2022-12-18T19:34:19;29.33;;;15.70;;
18399;SDS011;9326;49.468;11.008;2022-12-18T19:36:46;31.47;;;17.40;;